Time;durP1;ratioP1;P1;durP2;ratioP2;P2;SDS_P1;SDS_P2;PMS_P1;PMS_P2;Temp;Humidity;BMP_temperature;BMP_pressure;BME280_temperature;BME280_humidity;BME280_pressure;Samples;Min_cycle;Max_cycle;Signal;HPM_P1;HPM_P2
2023/07/09 00:00:18;;;;;;;11.67;3.40;;;18.00;99.90;;;;;;5047989;28;20883;-52
2023/07/09 00:02:45;;;;;;;3.30;3.07;;;17.90;99.90;;;;;;5047121;28;20462;-53
2023/07/09 00:05:14;;;;;;;3.90;3.60;;;17.90;99.90;;;;;;5047076;28;20504;-52
2023/07/09 00:07:42;;;;;;;3.67;3.17;;;17.90;99.90;;;;;;5042858;28;20826;-53
2023/07/09 00:10:17;;;;;;;6.63;3.20;;;17.90;99.90;;;;;;5042833;28;21034;-54
2023/07/09 00:12:45;;;;;;;8.80;3.53;;;17.90;99.90;;;;;;5045750;28;20502;-53
2023/07/09 00:15:12;;;;;;;3.40;3.10;;;17.90;99.90;;;;;;5047577;28;20489;-53
2023/07/09 00:17:40;;;;;;;4.90;3.40;;;17.90;99.90;;;;;;5052301;28;20442;-53
2023/07/09 00:20:13;;;;;;;3.80;3.50;;;17.90;99.90;;;;;;5046538;28;20485;-53
2023/07/09 00:22:40;;;;;;;7.00;2.97;;;17.90;99.90;;;;;;5047475;28;21049;-54
2023/07/09 00:25:08;;;;;;;6.37;3.20;;;17.90;99.90;;;;;;5043970;28;20481;-52
2023/07/09 00:27:35;;;;;;;8.90;3.90;;;17.90;99.90;;;;;;5047972;28;20493;-52
2023/07/09 00:30:03;;;;;;;4.33;2.97;;;17.80;99.90;;;;;;5036508;28;20544;-53
2023/07/09 00:32:30;;;;;;;4.13;3.73;;;17.80;99.90;;;;;;5045916;28;20461;-54
2023/07/09 00:34:56;;;;;;;3.30;3.00;;;17.70;99.90;;;;;;5042508;28;20995;-53
2023/07/09 00:37:26;;;;;;;5.37;3.53;;;17.70;99.90;;;;;;5047137;28;20450;-53
2023/07/09 00:39:52;;;;;;;4.53;3.53;;;17.60;99.90;;;;;;5044120;28;20995;-53
2023/07/09 00:42:23;;;;;;;4.50;3.27;;;17.60;99.90;;;;;;5050389;28;20493;-53
2023/07/09 00:44:52;;;;;;;6.77;3.50;;;17.50;99.90;;;;;;5044330;28;20462;-54
2023/07/09 00:47:27;;;;;;;4.70;3.20;;;17.50;99.90;;;;;;5051640;28;20494;-53
2023/07/09 00:50:04;;;;;;;10.17;3.90;;;17.40;99.90;;;;;;5043480;28;20581;-53
2023/07/09 00:52:35;;;;;;;4.17;3.50;;;17.40;99.90;;;;;;5046341;28;20983;-54
2023/07/09 00:55:07;;;;;;;4.07;3.77;;;17.30;99.90;;;;;;5049432;28;20486;-52
2023/07/09 00:57:38;;;;;;;4.27;3.87;;;17.30;99.90;;;;;;5049714;28;20490;-53
2023/07/09 01:00:12;;;;;;;6.20;3.70;;;17.30;99.90;;;;;;5039154;28;20467;-53
2023/07/09 01:02:44;;;;;;;3.53;3.23;;;17.30;99.90;;;;;;5049053;28;20469;-53
2023/07/09 01:05:13;;;;;;;3.73;3.33;;;17.30;99.90;;;;;;5037406;28;20968;-52
2023/07/09 01:07:40;;;;;;;8.20;3.30;;;17.20;99.90;;;;;;5042224;28;20553;-55
2023/07/09 01:10:08;;;;;;;5.10;2.93;;;17.20;99.60;;;;;;5051537;28;20521;-53
2023/07/09 01:12:34;;;;;;;3.20;3.00;;;17.20;99.90;;;;;;5047725;28;20462;-52
2023/07/09 01:15:01;;;;;;;4.20;3.37;;;17.20;99.90;;;;;;5046820;28;20542;-54
2023/07/09 01:17:29;;;;;;;8.80;4.37;;;17.10;99.90;;;;;;5042560;28;20505;-53
2023/07/09 01:19:57;;;;;;;9.43;3.63;;;17.10;99.90;;;;;;5049394;28;20482;-52
2023/07/09 01:22:27;;;;;;;6.97;3.20;;;17.10;90.00;;;;;;5048486;28;20967;-53
2023/07/09 01:25:00;;;;;;;3.90;3.57;;;17.00;88.60;;;;;;5046482;28;20466;-52
2023/07/09 01:27:33;;;;;;;3.90;3.47;;;17.00;87.40;;;;;;5049241;28;20461;-54
2023/07/09 01:29:59;;;;;;;4.73;4.10;;;16.90;91.40;;;;;;5045543;28;20919;-52
2023/07/09 01:32:27;;;;;;;3.83;3.53;;;16.80;85.10;;;;;;5041216;28;21033;-52
2023/07/09 01:35:04;;;;;;;4.67;4.30;;;16.80;78.90;;;;;;5044021;28;20583;-53
2023/07/09 01:37:34;;;;;;;5.23;3.37;;;16.80;75.90;;;;;;5046074;28;20469;-53
2023/07/09 01:40:01;;;;;;;5.07;3.93;;;16.70;74.70;;;;;;5048122;28;20862;-53
2023/07/09 01:42:28;;;;;;;9.67;3.90;;;16.50;68.60;;;;;;5045820;28;20556;-53
2023/07/09 01:44:56;;;;;;;4.00;3.70;;;16.40;62.30;;;;;;5049432;28;20485;-53
2023/07/09 01:47:24;;;;;;;4.80;4.40;;;16.40;56.10;;;;;;5041522;28;21024;-54
2023/07/09 01:49:50;;;;;;;4.37;3.70;;;16.30;46.40;;;;;;5048512;28;20485;-54
2023/07/09 01:52:19;;;;;;;4.03;3.60;;;16.30;35.20;;;;;;5046333;28;20541;-52
2023/07/09 01:54:49;;;;;;;4.70;4.30;;;16.20;99.90;;;;;;5047666;28;20469;-52
2023/07/09 01:57:22;;;;;;;6.43;4.13;;;16.20;99.90;;;;;;5040699;28;20540;-53
2023/07/09 01:59:49;;;;;;;6.80;3.73;;;16.10;99.90;;;;;;5043367;28;20531;-54
2023/07/09 02:02:18;;;;;;;3.63;3.40;;;16.10;99.90;;;;;;5046000;28;20497;-54
2023/07/09 02:04:46;;;;;;;4.27;3.90;;;16.00;99.90;;;;;;5049452;28;20491;-52
2023/07/09 02:07:13;;;;;;;4.33;3.80;;;15.90;99.90;;;;;;5048745;28;20505;-51
2023/07/09 02:09:39;;;;;;;5.93;3.70;;;15.90;99.90;;;;;;5046757;28;20595;-53
2023/07/09 02:12:08;;;;;;;12.03;3.63;;;15.80;99.90;;;;;;5047600;28;20462;-53
2023/07/09 02:14:35;;;;;;;5.77;3.57;;;15.80;99.90;;;;;;5044672;28;20553;-53
2023/07/09 02:17:01;;;;;;;6.70;3.87;;;15.80;99.90;;;;;;5044308;28;20457;-52
2023/07/09 02:19:29;;;;;;;7.40;4.10;;;15.70;99.90;;;;;;5064913;22;20525;-53
2023/07/09 02:21:56;;;;;;;6.33;3.80;;;15.70;99.90;;;;;;5049578;28;20820;-52
2023/07/09 02:24:24;;;;;;;9.97;4.00;;;15.60;99.90;;;;;;5049847;28;20505;-52
2023/07/09 02:26:50;;;;;;;5.47;3.80;;;15.70;99.90;;;;;;5053062;28;20457;-52
2023/07/09 02:29:19;;;;;;;4.80;3.97;;;15.60;99.90;;;;;;5058015;28;20529;-52
2023/07/09 02:31:46;;;;;;;7.40;4.30;;;15.60;99.90;;;;;;5050537;28;20500;-52
2023/07/09 02:34:12;;;;;;;4.17;3.87;;;15.60;99.90;;;;;;5053154;28;20454;-52
2023/07/09 02:36:42;;;;;;;4.43;3.67;;;15.50;99.90;;;;;;5054742;28;20450;-52
2023/07/09 02:39:09;;;;;;;5.20;3.97;;;15.40;99.90;;;;;;5054676;28;20565;-53
2023/07/09 02:41:35;;;;;;;6.57;3.90;;;15.40;99.90;;;;;;5051714;28;20501;-53
2023/07/09 02:44:02;;;;;;;4.37;3.97;;;15.50;99.90;;;;;;5052745;28;20493;-52
2023/07/09 02:46:30;;;;;;;8.63;4.90;;;15.50;99.90;;;;;;5052825;28;20501;-53
2023/07/09 02:48:57;;;;;;;4.70;4.30;;;15.40;99.90;;;;;;5043481;28;20572;-52
2023/07/09 02:51:25;;;;;;;8.90;4.93;;;15.50;99.90;;;;;;5048573;28;20486;-51
2023/07/09 02:53:52;;;;;;;13.43;4.43;;;15.40;99.90;;;;;;5050043;28;20489;-53
2023/07/09 02:56:18;;;;;;;4.40;4.10;;;15.40;99.90;;;;;;5057338;28;20986;-54
2023/07/09 02:58:45;;;;;;;4.67;3.97;;;15.40;99.90;;;;;;5051390;28;20489;-55
2023/07/09 03:01:12;;;;;;;4.40;4.00;;;15.40;99.90;;;;;;5054334;28;20484;-57
2023/07/09 03:03:40;;;;;;;5.60;3.97;;;15.40;99.90;;;;;;5046415;28;20519;-54
2023/07/09 03:06:07;;;;;;;4.93;4.43;;;15.40;99.90;;;;;;5052135;28;20488;-55
2023/07/09 03:08:33;;;;;;;9.27;5.27;;;15.30;99.90;;;;;;5053760;28;20488;-54
2023/07/09 03:11:01;;;;;;;4.73;4.30;;;15.30;99.90;;;;;;5054335;28;20494;-55
2023/07/09 03:13:27;;;;;;;4.67;4.27;;;15.30;99.90;;;;;;5050266;28;20491;-56
2023/07/09 03:15:57;;;;;;;8.40;4.43;;;15.30;99.90;;;;;;5054001;28;20889;-54
2023/07/09 03:18:24;;;;;;;7.07;4.30;;;15.40;99.90;;;;;;5053985;28;20484;-54
2023/07/09 03:20:52;;;;;;;4.40;4.07;;;15.30;99.90;;;;;;5041558;28;20911;-55
2023/07/09 03:23:19;;;;;;;7.60;4.60;;;15.40;99.90;;;;;;5058547;28;20552;-54
2023/07/09 03:25:45;;;;;;;6.47;4.57;;;15.40;99.90;;;;;;5052890;28;20485;-55
2023/07/09 03:28:13;;;;;;;4.13;3.73;;;15.40;99.90;;;;;;5051924;28;20481;-55
2023/07/09 03:30:41;;;;;;;5.63;4.37;;;15.30;99.90;;;;;;5053590;28;20481;-55
2023/07/09 03:33:08;;;;;;;5.13;4.63;;;15.30;99.90;;;;;;5052167;28;20466;-54
2023/07/09 03:35:36;;;;;;;5.87;4.23;;;15.30;99.90;;;;;;5058669;28;20482;-54
2023/07/09 03:38:04;;;;;;;8.53;4.00;;;15.30;99.90;;;;;;5053798;28;20520;-53
2023/07/09 03:40:30;;;;;;;6.67;4.30;;;15.30;99.90;;;;;;5048809;28;20512;-56
2023/07/09 03:42:57;;;;;;;6.40;4.27;;;15.40;99.90;;;;;;5052238;28;20462;-55
2023/07/09 03:45:24;;;;;;;4.43;4.03;;;15.40;99.90;;;;;;5051507;28;20501;-55
2023/07/09 03:47:51;;;;;;;6.90;4.77;;;15.40;99.90;;;;;;5053326;28;20477;-55
2023/07/09 03:50:17;;;;;;;6.03;4.80;;;15.40;99.90;;;;;;5053358;28;20509;-54
2023/07/09 03:52:44;;;;;;;4.93;4.43;;;15.50;99.90;;;;;;5052787;28;20498;-54
2023/07/09 03:55:13;;;;;;;4.67;4.03;;;15.40;99.90;;;;;;5050085;28;20493;-56
2023/07/09 03:57:39;;;;;;;4.60;4.10;;;15.40;99.90;;;;;;5050271;28;20488;-55
2023/07/09 04:00:10;;;;;;;7.13;4.93;;;15.40;99.90;;;;;;5044057;28;20533;-54
2023/07/09 04:02:36;;;;;;;6.90;3.78;;;15.50;99.90;;;;;;5051283;28;21174;-56
2023/07/09 04:05:03;;;;;;;5.23;4.40;;;15.50;99.90;;;;;;5052458;28;20236;-55
2023/07/09 04:07:30;;;;;;;10.17;4.53;;;15.50;99.90;;;;;;5048497;28;20463;-55
2023/07/09 04:09:56;;;;;;;8.20;4.73;;;15.60;99.90;;;;;;5051662;28;20517;-55
2023/07/09 04:12:24;;;;;;;7.27;4.23;;;15.60;99.90;;;;;;5051604;28;20489;-55
2023/07/09 04:14:51;;;;;;;5.70;5.03;;;15.70;99.90;;;;;;5051826;28;20462;-56
2023/07/09 04:17:17;;;;;;;5.87;4.07;;;15.70;99.90;;;;;;5043709;28;20466;-54
2023/07/09 04:19:44;;;;;;;8.10;4.73;;;15.80;99.90;;;;;;5052123;28;20544;-54
2023/07/09 04:22:11;;;;;;;11.73;4.33;;;15.80;99.90;;;;;;5049023;28;20486;-55
2023/07/09 04:24:38;;;;;;;4.97;4.57;;;15.90;99.90;;;;;;5050556;28;20493;-54
2023/07/09 04:27:05;;;;;;;9.07;4.90;;;15.90;99.90;;;;;;5052016;28;20494;-55
2023/07/09 04:29:35;;;;;;;4.53;4.13;;;16.00;99.90;;;;;;5051816;28;20928;-55
2023/07/09 04:32:01;;;;;;;7.97;4.60;;;16.00;99.90;;;;;;5051523;28;20477;-55
2023/07/09 04:34:28;;;;;;;9.23;4.30;;;16.00;99.90;;;;;;5048688;28;20501;-55
2023/07/09 04:36:54;;;;;;;6.33;4.40;;;16.10;99.90;;;;;;5051331;28;20501;-55
2023/07/09 04:39:21;;;;;;;6.20;4.27;;;16.10;99.90;;;;;;5047834;28;20549;-56
2023/07/09 04:41:48;;;;;;;4.97;3.60;;;16.20;99.90;;;;;;5044566;28;20496;-55
2023/07/09 04:44:14;;;;;;;10.63;4.33;;;16.30;99.90;;;;;;5049019;28;20485;-56
2023/07/09 04:46:42;;;;;;;3.97;3.57;;;16.40;99.90;;;;;;5048915;28;20490;-55
2023/07/09 04:49:12;;;;;;;8.50;4.30;;;16.40;99.90;;;;;;5049906;28;20513;-55
2023/07/09 04:51:38;;;;;;;8.27;3.80;;;16.50;99.90;;;;;;5045990;28;20469;-54
2023/07/09 04:54:05;;;;;;;6.50;4.23;;;16.60;99.90;;;;;;5046698;28;20959;-55
2023/07/09 04:56:32;;;;;;;4.83;4.40;;;16.70;99.90;;;;;;5050045;28;20838;-56
2023/07/09 04:58:58;;;;;;;4.87;4.37;;;16.70;99.90;;;;;;5047692;28;21058;-54
2023/07/09 05:01:25;;;;;;;5.70;4.40;;;16.80;99.90;;;;;;5048542;28;20485;-56
2023/07/09 05:03:52;;;;;;;5.13;4.37;;;16.90;99.90;;;;;;5050750;28;20466;-56
2023/07/09 05:06:20;;;;;;;6.03;3.60;;;17.00;99.90;;;;;;5049973;28;20458;-54
2023/07/09 05:08:48;;;;;;;5.60;4.60;;;17.10;99.90;;;;;;5050047;28;20796;-56
2023/07/09 05:11:15;;;;;;;4.90;4.37;;;17.20;99.90;;;;;;5051609;28;20569;-55
2023/07/09 05:13:42;;;;;;;4.17;3.77;;;17.20;99.90;;;;;;5051213;28;20453;-54
2023/07/09 05:16:08;;;;;;;5.20;4.63;;;17.30;99.90;;;;;;5050263;28;20501;-55
2023/07/09 05:18:35;;;;;;;6.87;3.87;;;17.40;99.90;;;;;;5050318;28;20493;-55
2023/07/09 05:21:02;;;;;;;5.13;4.73;;;17.50;99.90;;;;;;5051069;28;20611;-54
2023/07/09 05:23:29;;;;;;;5.80;4.33;;;17.60;99.90;;;;;;5051843;28;20881;-55
2023/07/09 05:25:57;;;;;;;5.07;4.57;;;17.70;99.90;;;;;;5051678;28;20489;-54
2023/07/09 05:28:23;;;;;;;4.70;4.30;;;17.80;99.90;;;;;;5052013;28;20480;-55
2023/07/09 05:30:50;;;;;;;7.13;4.43;;;17.90;99.90;;;;;;5036637;28;20586;-54
2023/07/09 05:33:18;;;;;;;4.20;3.80;;;18.00;99.90;;;;;;5048497;28;20465;-54
2023/07/09 05:35:45;;;;;;;4.67;4.27;;;18.10;99.90;;;;;;5048492;28;20489;-53
2023/07/09 05:38:13;;;;;;;4.70;4.20;;;18.30;99.90;;;;;;5056575;28;20865;-55
2023/07/09 05:40:40;;;;;;;9.40;4.70;;;18.40;99.90;;;;;;5043005;28;20510;-54
2023/07/09 05:43:06;;;;;;;4.90;4.30;;;18.50;99.90;;;;;;5049969;28;20494;-55
2023/07/09 05:45:33;;;;;;;7.20;4.00;;;18.60;99.90;;;;;;5050075;28;20509;-54
2023/07/09 05:48:00;;;;;;;4.40;3.90;;;18.70;99.90;;;;;;5042034;28;20504;-54
2023/07/09 05:50:27;;;;;;;11.67;3.60;;;18.80;99.90;;;;;;5047161;28;20576;-53
2023/07/09 05:52:54;;;;;;;4.00;3.47;;;18.90;99.90;;;;;;5044954;28;20495;-56
2023/07/09 05:55:22;;;;;;;4.93;3.80;;;19.00;21.50;;;;;;5054666;28;20493;-56
2023/07/09 05:57:48;;;;;;;6.40;4.00;;;19.10;28.20;;;;;;5050422;28;20496;-55
2023/07/09 06:00:16;;;;;;;8.23;5.03;;;19.30;40.90;;;;;;5041666;28;20919;-54
2023/07/09 06:02:42;;;;;;;3.93;3.60;;;19.30;47.70;;;;;;5051559;28;20482;-54
2023/07/09 06:05:10;;;;;;;4.03;3.63;;;19.50;47.80;;;;;;5050718;28;20499;-55
2023/07/09 06:07:37;;;;;;;5.90;4.07;;;19.60;54.00;;;;;;5050879;28;20813;-55
2023/07/09 06:10:05;;;;;;;4.87;4.27;;;19.70;53.30;;;;;;5049302;28;20496;-55
2023/07/09 06:12:33;;;;;;;11.13;3.87;;;19.80;57.40;;;;;;5050390;28;21009;-55
2023/07/09 06:14:59;;;;;;;8.40;3.80;;;19.80;62.10;;;;;;5057309;28;20471;-55
2023/07/09 06:17:26;;;;;;;6.97;4.27;;;20.00;76.90;;;;;;5048256;28;20489;-55
2023/07/09 06:19:52;;;;;;;4.20;3.83;;;20.20;82.70;;;;;;5046435;28;20912;-56
2023/07/09 06:22:19;;;;;;;6.63;3.07;;;20.30;89.00;;;;;;5053053;28;20488;-54
2023/07/09 06:24:46;;;;;;;4.10;3.80;;;20.40;92.20;;;;;;5049147;28;20462;-54
2023/07/09 06:27:13;;;;;;;6.93;4.07;;;20.60;98.40;;;;;;5049049;28;20493;-56
2023/07/09 06:29:40;;;;;;;4.73;4.33;;;20.70;99.90;;;;;;5052893;28;20524;-53
2023/07/09 06:32:07;;;;;;;9.37;4.37;;;20.70;99.90;;;;;;5051501;28;20497;-56
2023/07/09 06:34:34;;;;;;;4.13;3.70;;;20.80;99.90;;;;;;5049835;28;20493;-55
2023/07/09 06:37:00;;;;;;;3.63;3.30;;;21.00;99.90;;;;;;5046692;28;20490;-54
2023/07/09 06:39:27;;;;;;;4.17;3.77;;;21.00;99.90;;;;;;5051558;28;21006;-54
2023/07/09 06:41:54;;;;;;;4.07;3.67;;;21.10;99.90;;;;;;5046330;28;20497;-55
2023/07/09 06:44:20;;;;;;;6.23;4.00;;;21.30;99.90;;;;;;5053411;28;20576;-53
2023/07/09 06:46:48;;;;;;;14.07;3.73;;;21.40;99.90;;;;;;5048983;28;20524;-53
2023/07/09 06:49:15;;;;;;;4.03;3.37;;;21.50;99.90;;;;;;5048939;28;20477;-54
2023/07/09 06:51:42;;;;;;;4.27;3.63;;;21.50;99.90;;;;;;5050334;28;20517;-54
2023/07/09 06:54:09;;;;;;;4.37;3.97;;;21.60;99.90;;;;;;5052288;28;20474;-54
2023/07/09 06:56:36;;;;;;;6.90;4.10;;;21.70;99.90;;;;;;5049525;28;20473;-54
2023/07/09 06:59:02;;;;;;;5.83;3.90;;;21.80;99.90;;;;;;5046992;28;20528;-56
2023/07/09 07:01:29;;;;;;;5.07;3.70;;;21.80;99.90;;;;;;5045577;28;20494;-54
2023/07/09 07:03:57;;;;;;;7.90;4.00;;;21.90;99.90;;;;;;5043865;28;20512;-53
2023/07/09 07:06:23;;;;;;;3.83;3.53;;;22.00;99.90;;;;;;5045475;28;20494;-54
2023/07/09 07:08:50;;;;;;;6.53;3.97;;;22.10;99.90;;;;;;5048593;28;20553;-53
2023/07/09 07:11:17;;;;;;;6.10;3.43;;;22.30;99.90;;;;;;5046691;28;20577;-54
2023/07/09 07:13:46;;;;;;;9.20;4.00;;;22.30;99.90;;;;;;5049849;28;20580;-53
2023/07/09 07:16:13;;;;;;;4.83;4.30;;;22.40;99.90;;;;;;5046018;28;20450;-54
2023/07/09 07:18:40;;;;;;;9.13;4.43;;;22.50;99.90;;;;;;5050124;28;20499;-54
2023/07/09 07:21:08;;;;;;;7.27;3.80;;;22.60;99.90;;;;;;5053991;28;20505;-54
2023/07/09 07:23:34;;;;;;;6.37;4.50;;;22.70;99.90;;;;;;5048991;28;20494;-54
2023/07/09 07:26:01;;;;;;;10.67;4.60;;;22.80;99.90;;;;;;5047629;28;20489;-54
2023/07/09 07:28:27;;;;;;;5.40;3.90;;;22.90;99.90;;;;;;5050112;28;20504;-55
2023/07/09 07:31:01;;;;;;;5.73;4.10;;;23.00;99.90;;;;;;5052243;28;20528;-55
2023/07/09 07:33:27;;;;;;;4.53;4.00;;;23.20;99.90;;;;;;5046778;28;20547;-53
2023/07/09 07:35:54;;;;;;;4.43;4.00;;;23.30;99.90;;;;;;5053465;28;20507;-53
2023/07/09 07:38:22;;;;;;;5.20;4.37;;;23.40;99.90;;;;;;5052204;28;20549;-53
2023/07/09 07:40:48;;;;;;;4.30;3.73;;;23.60;99.90;;;;;;5047261;28;20532;-55
2023/07/09 07:43:15;;;;;;;8.10;4.57;;;23.60;99.90;;;;;;5040090;28;20494;-54
2023/07/09 07:45:42;;;;;;;4.40;3.70;;;23.70;99.90;;;;;;5048113;28;20485;-55
2023/07/09 07:48:09;;;;;;;7.17;4.00;;;23.80;99.90;;;;;;5047937;28;20489;-55
2023/07/09 07:50:35;;;;;;;4.10;3.70;;;24.00;99.90;;;;;;5045780;28;20568;-53
2023/07/09 07:53:02;;;;;;;10.47;4.10;;;24.20;99.90;;;;;;5046922;28;20551;-55
2023/07/09 07:55:30;;;;;;;7.70;4.30;;;24.30;99.90;;;;;;5045332;28;20512;-53
2023/07/09 07:57:57;;;;;;;11.00;3.80;;;24.40;99.90;;;;;;5046943;28;20458;-55
2023/07/09 08:00:24;;;;;;;4.37;3.97;;;24.40;99.90;;;;;;5040629;28;20482;-54
2023/07/09 08:02:51;;;;;;;5.03;3.87;;;24.60;99.90;;;;;;5045130;28;20523;-53
2023/07/09 08:05:17;;;;;;;4.90;4.00;;;24.70;99.90;;;;;;5047211;28;20501;-54
2023/07/09 08:07:44;;;;;;;6.07;4.57;;;24.80;99.90;;;;;;5053805;28;20478;-54
2023/07/09 08:10:12;;;;;;;21.63;4.00;;;24.90;99.90;;;;;;5044904;28;20512;-55
2023/07/09 08:12:40;;;;;;;5.53;3.67;;;25.00;99.90;;;;;;5046090;28;20458;-55
2023/07/09 08:15:08;;;;;;;4.07;3.20;;;25.20;99.90;;;;;;5040837;28;20544;-55
2023/07/09 08:17:35;;;;;;;12.20;3.70;;;25.50;99.90;;;;;;5048700;28;20501;-55
2023/07/09 08:20:01;;;;;;;9.00;4.57;;;25.70;99.90;;;;;;5047894;28;20522;-51
2023/07/09 08:22:28;;;;;;;4.50;4.10;;;25.70;99.90;;;;;;5046527;28;20959;-51
2023/07/09 08:24:55;;;;;;;5.13;3.30;;;25.80;99.90;;;;;;5045462;28;20467;-51
2023/07/09 08:27:21;;;;;;;10.93;3.90;;;25.80;99.90;;;;;;5047375;28;20509;-51
2023/07/09 08:29:49;;;;;;;6.20;3.53;;;25.80;99.90;;;;;;5049160;28;20593;-52
2023/07/09 08:32:16;;;;;;;5.27;3.97;;;25.80;99.90;;;;;;5045696;28;20584;-51
2023/07/09 08:34:43;;;;;;;3.67;3.37;;;25.90;99.90;;;;;;5046090;28;20497;-51
2023/07/09 08:37:10;;;;;;;4.00;3.50;;;26.10;99.90;;;;;;5045351;28;20454;-51
2023/07/09 08:39:37;;;;;;;4.20;3.80;;;26.30;99.90;;;;;;5043964;28;20515;-51
2023/07/09 08:42:07;;;;;;;3.53;3.27;;;26.30;99.90;;;;;;5046506;28;20450;-52
2023/07/09 08:45:02;;;;;;;4.50;3.80;;;26.30;99.90;;;;;;5046259;28;20552;-52
2023/07/09 08:47:37;;;;;;;5.67;3.17;;;26.40;99.90;;;;;;5045475;28;20885;-51
2023/07/09 08:50:09;;;;;;;13.00;3.90;;;26.60;99.90;;;;;;5047846;28;20481;-51
2023/07/09 08:52:38;;;;;;;5.73;3.90;;;26.70;99.90;;;;;;5052286;28;20517;-52
2023/07/09 08:55:08;;;;;;;6.40;3.30;;;26.80;99.90;;;;;;5045582;28;20473;-51
2023/07/09 08:57:38;;;;;;;3.40;3.10;;;26.90;99.90;;;;;;5046696;28;20486;-52
2023/07/09 09:00:16;;;;;;;4.93;3.53;;;27.10;99.90;;;;;;5048077;28;21070;-52
2023/07/09 09:02:49;;;;;;;4.67;4.27;;;27.20;99.90;;;;;;5049014;28;20532;-51
2023/07/09 09:05:19;;;;;;;5.13;3.43;;;27.30;99.90;;;;;;5043710;28;20907;-52
2023/07/09 09:07:53;;;;;;;3.60;3.30;;;27.40;99.90;;;;;;5041793;28;20988;-51
2023/07/09 09:10:26;;;;;;;11.83;3.50;;;27.60;99.90;;;;;;5048023;28;20954;-52
2023/07/09 09:13:02;;;;;;;3.80;3.10;;;28.00;99.90;;;;;;5048809;28;20485;-52
2023/07/09 09:15:31;;;;;;;10.33;3.20;;;28.30;99.90;;;;;;5047172;28;20507;-52
2023/07/09 09:18:10;;;;;;;4.23;3.13;;;28.60;99.90;;;;;;5046796;28;20552;-52
2023/07/09 09:20:37;;;;;;;3.07;2.87;;;29.00;99.90;;;;;;5040571;28;20527;-52
2023/07/09 09:23:14;;;;;;;3.40;3.20;;;29.50;99.90;;;;;;5042085;28;20493;-51
2023/07/09 09:25:44;;;;;;;6.90;3.70;;;29.50;99.90;;;;;;5041957;28;20472;-51
2023/07/09 09:28:11;;;;;;;5.67;3.57;;;29.30;99.90;;;;;;5044027;28;20497;-51
2023/07/09 09:30:39;;;;;;;3.40;3.10;;;29.20;99.90;;;;;;5053708;28;20542;-51
2023/07/09 09:33:08;;;;;;;3.30;3.07;;;29.00;99.90;;;;;;5048475;28;20490;-52
2023/07/09 09:35:37;;;;;;;5.20;3.00;;;29.10;99.90;;;;;;5045266;28;20544;-52
2023/07/09 09:38:11;;;;;;;3.73;3.30;;;29.10;99.90;;;;;;5038217;28;20549;-52
2023/07/09 09:40:38;;;;;;;4.97;3.77;;;29.20;99.90;;;;;;5047955;28;20520;-52
2023/07/09 09:43:13;;;;;;;4.83;4.00;;;29.20;99.90;;;;;;5046900;28;20505;-52
2023/07/09 09:45:44;;;;;;;4.20;3.47;;;29.40;99.90;;;;;;5049764;28;20507;-52
2023/07/09 09:48:20;;;;;;;6.70;3.30;;;29.50;99.90;;;;;;5045391;28;20466;-53
2023/07/09 09:50:48;;;;;;;4.60;4.20;;;29.50;99.90;;;;;;5045436;28;20505;-53
2023/07/09 09:53:21;;;;;;;6.03;3.77;;;29.60;99.90;;;;;;5048122;28;20486;-52
2023/07/09 09:55:48;;;;;;;3.57;3.37;;;29.60;99.90;;;;;;5051796;28;20504;-52
2023/07/09 09:58:16;;;;;;;3.83;3.53;;;29.70;99.90;;;;;;5048030;28;20462;-52
2023/07/09 10:00:51;;;;;;;7.00;3.87;;;29.80;99.90;;;;;;5048679;28;20561;-53
2023/07/09 10:03:18;;;;;;;4.73;4.23;;;30.00;99.90;;;;;;5051210;28;20461;-53
2023/07/09 10:05:49;;;;;;;6.23;3.43;;;30.20;99.90;;;;;;5047381;28;20562;-52
2023/07/09 10:08:27;;;;;;;4.33;3.37;;;30.30;99.90;;;;;;5037621;28;20470;-52
2023/07/09 10:11:03;;;;;;;6.57;3.20;;;30.60;99.90;;;;;;5044831;28;20531;-53
2023/07/09 10:13:33;;;;;;;4.77;3.40;;;31.00;99.90;;;;;;5050209;28;20492;-53
2023/07/09 10:16:07;;;;;;;6.50;3.27;;;31.30;99.90;;;;;;5044860;28;20489;-52
2023/07/09 10:18:44;;;;;;;5.87;3.90;;;31.20;99.90;;;;;;5042720;28;20554;-52
2023/07/09 10:21:19;;;;;;;6.37;3.40;;;31.10;99.90;;;;;;5046211;28;20550;-53
2023/07/09 10:23:53;;;;;;;4.80;3.50;;;31.30;99.90;;;;;;5047651;28;20485;-52
2023/07/09 10:26:28;;;;;;;4.03;3.60;;;31.60;99.90;;;;;;5044655;28;20946;-53
2023/07/09 10:29:25;;;;;;;3.73;3.00;;;31.90;99.90;;;;;;5041089;28;20453;-52
2023/07/09 10:32:02;;;;;;;16.20;3.30;;;31.70;99.90;;;;;;5040947;28;20582;-53
2023/07/09 10:34:35;;;;;;;2.93;2.73;;;32.30;99.90;;;;;;5043629;28;20496;-52
2023/07/09 10:37:19;;;;;;;7.37;3.30;;;33.20;99.90;;;;;;5039769;28;20453;-52
2023/07/09 10:39:50;;;;;;;4.00;3.27;;;33.70;99.90;;;;;;5045590;28;20524;-52
2023/07/09 10:42:22;;;;;;;3.33;3.03;;;33.30;99.90;;;;;;5049379;28;20469;-52
2023/07/09 10:44:56;;;;;;;3.70;3.40;;;32.90;99.90;;;;;;5050535;28;20828;-52
2023/07/09 10:47:29;;;;;;;4.60;3.10;;;33.30;99.90;;;;;;5045318;28;20524;-52
2023/07/09 10:49:57;;;;;;;5.17;3.83;;;32.90;99.90;;;;;;5051952;28;20509;-53
2023/07/09 10:52:29;;;;;;;3.40;3.10;;;32.30;99.90;;;;;;5049574;28;20543;-52
2023/07/09 10:55:03;;;;;;;3.33;3.03;;;32.40;99.90;;;;;;5048476;28;20484;-56
2023/07/09 10:57:35;;;;;;;3.90;3.10;;;32.00;99.90;;;;;;5046416;28;20457;-52
2023/07/09 11:00:03;;;;;;;4.70;3.43;;;32.30;99.90;;;;;;5054168;28;20501;-52
2023/07/09 11:02:35;;;;;;;4.40;3.73;;;32.30;99.90;;;;;;5049443;28;20493;-53
2023/07/09 11:05:03;;;;;;;5.50;3.23;;;32.20;99.90;;;;;;5051630;28;20485;-52
2023/07/09 11:07:34;;;;;;;7.10;3.37;;;32.40;99.90;;;;;;5047020;28;20464;-53
2023/07/09 11:10:02;;;;;;;3.13;2.93;;;32.80;99.90;;;;;;5053025;28;20546;-52
2023/07/09 11:12:34;;;;;;;3.37;3.10;;;32.80;99.90;;;;;;5050725;28;20513;-52
2023/07/09 11:15:04;;;;;;;3.37;3.07;;;31.90;99.90;;;;;;5053968;28;20944;-52
2023/07/09 11:17:33;;;;;;;4.10;3.10;;;32.10;99.90;;;;;;5050927;28;20508;-53
2023/07/09 11:20:07;;;;;;;3.83;3.53;;;32.10;99.90;;;;;;5051891;28;20512;-52
2023/07/09 11:22:38;;;;;;;3.67;3.37;;;32.00;99.90;;;;;;5045096;28;20470;-53
2023/07/09 11:25:08;;;;;;;5.93;3.67;;;31.80;99.90;;;;;;5049172;28;20501;-53
2023/07/09 11:27:46;;;;;;;16.47;3.17;;;32.40;99.90;;;;;;5048593;28;20486;-52
2023/07/09 11:30:23;;;;;;;3.40;3.20;;;32.70;99.90;;;;;;5050171;28;20520;-52
2023/07/09 11:32:57;;;;;;;5.13;2.87;;;32.90;99.90;;;;;;5047577;28;21092;-52
2023/07/09 11:35:25;;;;;;;3.63;3.27;;;32.90;99.90;;;;;;5047741;28;20489;-52
2023/07/09 11:37:53;;;;;;;3.70;3.50;;;32.90;99.90;;;;;;5045351;28;21042;-52
2023/07/09 11:40:22;;;;;;;3.00;2.80;;;32.80;99.90;;;;;;5048052;28;20481;-52
2023/07/09 11:42:52;;;;;;;6.13;3.17;;;32.50;98.70;;;;;;5049343;28;20462;-52
2023/07/09 11:45:25;;;;;;;3.70;3.40;;;32.00;95.80;;;;;;5042143;28;20545;-53
2023/07/09 11:48:03;;;;;;;4.13;3.80;;;31.90;99.90;;;;;;5047299;28;20867;-52
2023/07/09 11:50:33;;;;;;;3.87;2.77;;;31.80;99.90;;;;;;5050017;28;20492;-51
2023/07/09 11:53:04;;;;;;;5.20;2.97;;;31.90;99.90;;;;;;5047606;28;20492;-56
2023/07/09 11:55:39;;;;;;;6.10;3.10;;;32.10;99.90;;;;;;5050275;28;20485;-52
2023/07/09 11:58:06;;;;;;;7.13;3.60;;;32.40;99.90;;;;;;5050542;28;20492;-52
2023/07/09 12:00:39;;;;;;;3.70;3.33;;;32.50;99.90;;;;;;5047212;28;20522;-51
2023/07/09 12:03:12;;;;;;;3.00;2.80;;;32.60;99.90;;;;;;5047657;28;20482;-52
2023/07/09 12:05:39;;;;;;;4.40;3.37;;;32.90;99.90;;;;;;5050618;28;20891;-52
2023/07/09 12:08:08;;;;;;;9.93;2.73;;;32.70;99.90;;;;;;5047119;28;20485;-53
2023/07/09 12:10:36;;;;;;;7.70;2.83;;;32.70;99.90;;;;;;5046743;28;20538;-52
2023/07/09 12:13:04;;;;;;;3.57;3.27;;;32.70;99.90;;;;;;5049015;28;21015;-52
2023/07/09 12:15:32;;;;;;;5.87;3.53;;;32.80;99.90;;;;;;5053298;28;20481;-52
2023/07/09 12:18:02;;;;;;;8.50;3.90;;;32.70;97.90;;;;;;5048959;28;20454;-51
2023/07/09 12:20:32;;;;;;;3.60;3.30;;;32.80;93.90;;;;;;5049099;28;20524;-51
2023/07/09 12:22:59;;;;;;;7.90;3.50;;;33.10;88.50;;;;;;5049776;28;20479;-51
2023/07/09 12:25:29;;;;;;;3.57;3.30;;;33.20;83.40;;;;;;5047465;28;20454;-52
2023/07/09 12:27:56;;;;;;;6.23;3.20;;;33.10;93.90;;;;;;5047245;28;20498;-56
2023/07/09 12:30:22;;;;;;;3.20;3.00;;;32.80;90.20;;;;;;5049255;28;21158;-52
2023/07/09 12:32:52;;;;;;;3.37;3.17;;;33.00;85.70;;;;;;5046986;28;20539;-52
2023/07/09 12:35:20;;;;;;;3.30;3.10;;;32.90;99.90;;;;;;5048944;28;20888;-53
2023/07/09 12:37:51;;;;;;;5.80;3.50;;;32.90;89.20;;;;;;5047214;28;20486;-52
2023/07/09 12:40:22;;;;;;;4.03;3.47;;;33.10;98.40;;;;;;5050334;28;20554;-52
2023/07/09 12:42:49;;;;;;;6.77;3.33;;;33.50;94.50;;;;;;5041536;28;20549;-53
2023/07/09 12:45:19;;;;;;;3.70;3.27;;;34.10;20.50;;;;;;5045536;28;21044;-52
2023/07/09 12:47:46;;;;;;;5.03;3.03;;;35.10;20.00;;;;;;5041722;28;20458;-53
2023/07/09 12:50:29;;;;;;;3.87;3.37;;;35.20;22.70;;;;;;5048109;28;20483;-53
2023/07/09 12:53:01;;;;;;;4.33;3.97;;;34.70;22.10;;;;;;5050070;28;20524;-52